Time;durP1;ratioP1;P1;durP2;ratioP2;P2;SDS_P1;SDS_P2;PMS_P1;PMS_P2;Temp;Humidity;BMP_temperature;BMP_pressure;BME280_temperature;BME280_humidity;BME280_pressure;Samples;Min_cycle;Max_cycle;Signal;HPM_P1;HPM_P2
2022/06/15 00:01:49;;;;;;;9.32;4.88;;;;;;;17.38;58.75;99175.09;5244785;28;20097;-71
2022/06/15 00:04:39;;;;;;;9.80;4.85;;;;;;;17.28;59.30;99192.44;5242239;28;20190;-71
2022/06/15 00:07:29;;;;;;;7.35;4.65;;;;;;;17.38;59.53;99185.81;5245386;28;20048;-71
2022/06/15 00:10:19;;;;;;;7.07;4.32;;;;;;;17.17;59.74;99177.63;5245196;28;20075;-71
2022/06/15 00:13:10;;;;;;;8.73;5.18;;;;;;;17.40;59.38;99192.84;5245095;28;20052;-71
2022/06/15 00:16:01;;;;;;;11.68;5.95;;;;;;;17.23;59.88;99184.13;5229663;28;20551;-71
2022/06/15 00:18:52;;;;;;;7.82;4.88;;;;;;;17.04;60.45;99182.78;5231970;28;20068;-71
2022/06/15 00:21:42;;;;;;;8.30;4.90;;;;;;;17.08;59.94;99176.88;5244485;28;20510;-71
2022/06/15 00:24:32;;;;;;;9.85;5.25;;;;;;;17.00;60.05;99187.66;5244987;28;20557;-71
2022/06/15 00:27:22;;;;;;;9.15;5.03;;;;;;;16.87;59.49;99177.56;5245185;28;20761;-71
2022/06/15 00:30:12;;;;;;;8.68;5.10;;;;;;;16.51;60.86;99177.28;5244956;28;20146;-71
2022/06/15 00:33:02;;;;;;;8.15;5.40;;;;;;;16.60;60.24;99194.13;5229836;28;20071;-71
2022/06/15 00:35:58;;;;;;;9.32;5.28;;;;;;;16.45;61.15;99189.53;5243948;28;20178;-71
2022/06/15 00:38:51;;;;;;;6.65;4.60;;;;;;;16.58;60.96;99191.63;5232071;28;20055;-71
2022/06/15 00:41:42;;;;;;;9.18;5.10;;;;;;;16.66;60.74;99191.59;5244268;28;20055;-71
2022/06/15 00:44:37;;;;;;;8.82;5.35;;;;;;;16.56;60.69;99190.16;5228717;28;20051;-71
2022/06/15 00:47:32;;;;;;;9.88;5.95;;;;;;;16.60;60.55;99175.41;5244910;28;20052;-71
2022/06/15 00:50:25;;;;;;;13.20;5.50;;;;;;;16.58;60.01;99158.66;5243769;28;20056;-71
2022/06/15 00:53:16;;;;;;;6.30;5.40;;;;;;;16.45;61.28;99159.25;5228897;28;20485;-71
2022/06/15 00:56:08;;;;;;;10.30;5.22;;;;;;;16.89;59.26;99146.09;5229384;28;20135;-71
2022/06/15 00:59:04;;;;;;;8.55;5.25;;;;;;;16.91;59.58;99154.75;5221827;28;20059;-72
2022/06/15 01:01:54;;;;;;;12.57;5.57;;;;;;;16.79;60.42;99150.03;5228615;28;20146;-71
2022/06/15 01:04:50;;;;;;;10.13;5.72;;;;;;;16.74;60.56;99145.16;5212855;28;20532;-71
2022/06/15 01:07:55;;;;;;;7.82;5.13;;;;;;;16.71;60.15;99150.03;5229520;28;20331;-71
2022/06/15 01:11:00;;;;;;;11.02;5.65;;;;;;;16.59;60.67;99152.31;5228751;28;20055;-71
2022/06/15 01:14:19;;;;;;;11.20;5.53;;;;;;;16.40;61.83;99159.81;5243943;28;20517;-71
2022/06/15 01:17:21;;;;;;;9.07;5.43;;;;;;;16.59;60.87;99152.31;5228016;28;20053;-71
2022/06/15 01:20:37;;;;;;;9.18;5.97;;;;;;;16.78;61.22;99141.13;5243099;28;20149;-71
2022/06/15 01:23:47;;;;;;;10.10;6.50;;;;;;;16.58;61.17;99130.06;5238671;28;20053;-71
2022/06/15 01:26:52;;;;;;;10.05;6.43;;;;;;;16.60;60.98;99143.28;5239426;28;20059;-71
2022/06/15 01:30:11;;;;;;;11.43;6.30;;;;;;;16.41;61.95;99132.03;5244267;28;20094;-71
2022/06/15 01:33:10;;;;;;;8.90;5.65;;;;;;;16.27;62.00;99143.50;5228103;28;20055;-71
2022/06/15 01:36:17;;;;;;;9.38;6.15;;;;;;;16.09;62.59;99129.53;5238941;28;20555;-71
2022/06/15 01:39:21;;;;;;;8.70;6.20;;;;;;;16.00;61.95;99130.63;5219346;28;20517;-71
2022/06/15 01:42:36;;;;;;;11.98;5.80;;;;;;;16.03;61.60;99136.44;5243194;28;20437;-71
2022/06/15 01:45:31;;;;;;;9.02;5.55;;;;;;;16.04;62.34;99142.63;5212166;28;20063;-71
2022/06/15 01:48:23;;;;;;;8.35;5.60;;;;;;;16.01;62.00;99138.44;5228779;28;20431;-71
2022/06/15 01:51:22;;;;;;;8.23;5.80;;;;;;;16.03;62.47;99139.13;5228326;28;20055;-71
2022/06/15 01:54:27;;;;;;;9.65;5.70;;;;;;;16.09;62.57;99129.53;5227561;28;20052;-71
2022/06/15 01:57:20;;;;;;;10.98;5.80;;;;;;;15.93;63.45;99138.50;5243263;28;20080;-71
2022/06/15 02:00:17;;;;;;;9.93;6.47;;;;;;;15.89;62.93;99139.84;5227845;28;20056;-71
2022/06/15 02:03:14;;;;;;;9.98;6.53;;;;;;;15.77;63.81;99133.22;5229520;28;20079;-71
2022/06/15 02:06:28;;;;;;;11.15;7.10;;;;;;;15.87;64.22;99140.03;5242020;28;20044;-71
2022/06/15 02:09:31;;;;;;;10.60;6.00;;;;;;;15.86;63.58;99143.72;5230667;28;20063;-71
2022/06/15 02:12:29;;;;;;;11.52;6.20;;;;;;;15.92;63.08;99147.50;5227171;28;20437;-71
2022/06/15 02:15:25;;;;;;;9.68;6.05;;;;;;;15.79;63.60;99144.56;5227718;28;20055;-71
2022/06/15 02:18:21;;;;;;;12.32;6.60;;;;;;;15.57;64.99;99146.13;5227912;28;20501;-71
2022/06/15 02:21:18;;;;;;;10.52;6.40;;;;;;;15.40;65.11;99130.16;5214149;28;20056;-71
2022/06/15 02:24:14;;;;;;;14.05;7.10;;;;;;;15.75;65.53;99138.72;5213408;28;20053;-71
2022/06/15 02:27:07;;;;;;;11.98;6.57;;;;;;;15.81;64.48;99132.69;5227587;28;20262;-71
2022/06/15 02:30:05;;;;;;;9.25;6.60;;;;;;;15.86;64.40;99135.69;5228109;28;20090;-71
2022/06/15 02:33:13;;;;;;;12.02;7.32;;;;;;;15.72;64.51;99136.41;5226492;28;20048;-73
2022/06/15 02:36:05;;;;;;;13.63;7.00;;;;;;;15.62;64.26;99133.91;5227079;28;20190;-71
2022/06/15 02:38:56;;;;;;;10.20;6.40;;;;;;;15.60;63.97;99133.25;5226781;28;20049;-71
2022/06/15 02:42:00;;;;;;;9.52;6.35;;;;;;;15.38;63.30;99131.31;5227511;28;20122;-71
2022/06/15 02:44:54;;;;;;;10.38;6.57;;;;;;;15.20;63.91;99124.34;5226313;28;20064;-71
2022/06/15 02:47:48;;;;;;;9.20;5.75;;;;;;;14.99;63.97;99122.22;5227682;28;20494;-71
2022/06/15 02:50:44;;;;;;;10.55;5.72;;;;;;;15.15;63.70;99133.88;5227199;28;20048;-71
2022/06/15 02:53:39;;;;;;;10.27;6.32;;;;;;;15.29;63.27;99133.16;5235293;28;20068;-71
2022/06/15 02:56:31;;;;;;;10.43;6.47;;;;;;;15.39;61.99;99112.44;5227155;28;20510;-71
2022/06/15 02:59:22;;;;;;;8.93;5.70;;;;;;;15.48;61.82;99127.44;5219934;28;20051;-71
2022/06/15 03:02:14;;;;;;;11.55;6.10;;;;;;;15.37;62.18;99130.50;5226877;28;20071;-71
2022/06/15 03:05:07;;;;;;;11.50;5.70;;;;;;;15.20;62.60;99131.53;5226886;28;20056;-70
2022/06/15 03:07:58;;;;;;;11.93;6.07;;;;;;;15.19;62.78;99143.22;5218693;28;20125;-71
2022/06/15 03:10:49;;;;;;;14.23;6.05;;;;;;;15.11;62.70;99140.56;5227222;28;20428;-71
2022/06/15 03:13:40;;;;;;;9.95;5.93;;;;;;;14.96;62.85;99143.06;5213454;28;20525;-71
2022/06/15 03:16:30;;;;;;;18.02;6.68;;;;;;;14.90;63.61;99133.91;5230195;28;20186;-71
2022/06/15 03:19:21;;;;;;;13.70;6.05;;;;;;;14.77;63.03;99138.94;5231056;28;20434;-71
2022/06/15 03:22:18;;;;;;;12.55;5.78;;;;;;;14.88;63.68;99125.22;5230482;28;20051;-71
2022/06/15 03:25:13;;;;;;;8.25;5.68;;;;;;;14.78;63.72;99124.56;5230479;28;20059;-70
2022/06/15 03:28:04;;;;;;;9.07;6.10;;;;;;;14.68;64.05;99123.91;5232660;28;20567;-70
2022/06/15 03:30:57;;;;;;;9.65;6.00;;;;;;;14.77;63.58;99125.59;5245201;28;20056;-71
2022/06/15 03:33:47;;;;;;;8.48;5.60;;;;;;;14.71;63.32;99115.56;5230773;28;20059;-71
2022/06/15 03:36:42;;;;;;;9.52;5.97;;;;;;;14.61;64.00;99123.75;5230267;28;20055;-71
2022/06/15 03:39:33;;;;;;;10.70;6.82;;;;;;;14.55;64.25;99116.41;5244541;28;20089;-70
2022/06/15 03:42:25;;;;;;;13.18;6.00;;;;;;;14.61;63.79;99120.25;5229863;28;20431;-71
2022/06/15 03:45:16;;;;;;;10.82;6.45;;;;;;;14.40;63.93;99094.00;5214035;28;20050;-71
2022/06/15 03:48:06;;;;;;;11.15;6.60;;;;;;;14.54;64.37;99118.25;5230892;28;20078;-70
2022/06/15 03:50:58;;;;;;;11.40;6.50;;;;;;;14.48;64.51;99110.03;5229679;28;20182;-70
2022/06/15 03:53:50;;;;;;;12.43;6.20;;;;;;;14.36;64.70;99103.34;5230710;28;20102;-71
2022/06/15 03:56:42;;;;;;;14.70;6.93;;;;;;;14.52;64.59;99120.22;5230198;28;20322;-71
2022/06/15 03:59:37;;;;;;;12.88;6.60;;;;;;;14.49;64.59;99125.84;5216869;28;20162;-71
2022/06/15 04:02:48;;;;;;;10.95;6.93;;;;;;;14.54;63.56;99128.09;5245313;28;20131;-71
2022/06/15 04:05:53;;;;;;;11.40;7.00;;;;;;;14.54;64.98;99128.91;5229783;28;20059;-71
2022/06/15 04:08:47;;;;;;;17.63;7.90;;;;;;;14.66;65.39;99132.06;5230388;28;20109;-71
2022/06/15 04:11:59;;;;;;;13.20;8.40;;;;;;;14.74;66.22;99141.94;5218725;28;20078;-71
2022/06/15 04:14:55;;;;;;;15.65;8.30;;;;;;;14.88;65.68;99145.75;5229464;28;20058;-71
2022/06/15 04:18:02;;;;;;;15.93;8.48;;;;;;;14.85;65.25;99125.56;5230013;28;20672;-71
2022/06/15 04:21:05;;;;;;;20.60;8.57;;;;;;;14.75;66.26;99152.44;5226837;28;20048;-71
2022/06/15 04:23:56;;;;;;;14.32;9.05;;;;;;;14.85;67.28;99157.59;5230134;28;20044;-71
2022/06/15 04:26:48;;;;;;;19.13;9.15;;;;;;;14.98;67.44;99151.75;5229556;28;20052;-71
2022/06/15 04:29:41;;;;;;;22.02;9.27;;;;;;;15.03;67.80;99162.75;5230776;28;20491;-71
2022/06/15 04:32:32;;;;;;;14.25;9.05;;;;;;;15.12;67.07;99160.91;5244519;28;20052;-71
2022/06/15 04:35:26;;;;;;;12.02;8.35;;;;;;;15.01;66.33;99143.41;5229512;28;20544;-71
2022/06/15 04:38:16;;;;;;;14.68;9.68;;;;;;;15.32;66.97;99156.03;5228331;28;20052;-71
2022/06/15 04:41:18;;;;;;;19.45;9.30;;;;;;;15.58;66.23;99158.50;5228975;28;20518;-71
2022/06/15 04:44:11;;;;;;;18.73;8.88;;;;;;;15.57;66.45;99157.66;5229276;28;20048;-71
2022/06/15 04:47:06;;;;;;;21.17;10.02;;;;;;;15.65;66.76;99157.63;5212982;28;20540;-71
2022/06/15 04:49:57;;;;;;;16.50;9.02;;;;;;;15.80;66.78;99173.00;5244832;28;20098;-71
2022/06/15 04:52:49;;;;;;;13.45;8.35;;;;;;;15.71;65.30;99164.16;5244172;28;20060;-71
2022/06/15 04:55:39;;;;;;;12.90;8.15;;;;;;;15.64;65.63;99152.47;5228656;28;20044;-71
2022/06/15 04:58:30;;;;;;;15.63;8.30;;;;;;;15.60;65.94;99146.63;5229575;28;20526;-71
2022/06/15 05:01:23;;;;;;;13.82;8.13;;;;;;;15.70;65.36;99162.50;5228725;28;20111;-70
2022/06/15 05:04:13;;;;;;;14.13;8.65;;;;;;;15.83;65.06;99157.44;5228752;28;20134;-71
2022/06/15 05:07:03;;;;;;;19.40;7.95;;;;;;;15.89;64.29;99146.06;5242769;28;20074;-70
2022/06/15 05:10:01;;;;;;;14.02;7.50;;;;;;;16.11;63.56;99154.28;5215968;28;20045;-71
2022/06/15 05:12:53;;;;;;;16.92;7.70;;;;;;;16.31;63.02;99160.84;5228772;28;20513;-70
2022/06/15 05:15:46;;;;;;;13.95;8.50;;;;;;;16.74;60.46;99158.56;5244242;28;20520;-71
2022/06/15 05:18:37;;;;;;;16.15;9.52;;;;;;;16.83;60.00;99149.47;5214810;28;20090;-71
2022/06/15 05:21:39;;;;;;;15.75;8.48;;;;;;;17.08;59.18;99151.94;5228495;28;20173;-73
2022/06/15 05:24:31;;;;;;;15.90;8.80;;;;;;;17.12;60.06;99163.97;5228898;28;20243;-72
2022/06/15 05:27:25;;;;;;;18.80;8.93;;;;;;;17.11;59.52;99143.53;5228594;28;20469;-72
2022/06/15 05:30:18;;;;;;;14.23;7.47;;;;;;;17.09;59.66;99142.91;5228264;28;20141;-72
2022/06/15 05:33:09;;;;;;;12.45;6.85;;;;;;;17.20;59.57;99150.47;5242128;28;20139;-72
2022/06/15 05:36:06;;;;;;;12.40;6.55;;;;;;;17.35;59.77;99148.66;5227498;28;20502;-72
2022/06/15 05:38:57;;;;;;;13.63;7.30;;;;;;;17.54;59.65;99147.25;5227075;28;20055;-71
2022/06/15 05:41:51;;;;;;;10.70;6.43;;;;;;;17.64;59.89;99157.72;5227864;28;20049;-71
2022/06/15 05:44:48;;;;;;;13.30;6.57;;;;;;;17.91;58.59;99147.38;5211296;28;20411;-71
2022/06/15 05:47:40;;;;;;;12.95;6.20;;;;;;;17.99;57.63;99139.22;5214298;28;20360;-71
2022/06/15 05:50:41;;;;;;;10.82;5.75;;;;;;;18.28;56.32;99141.00;5227671;28;20059;-71
2022/06/15 05:53:38;;;;;;;10.35;6.03;;;;;;;18.26;58.04;99146.56;5227971;28;20090;-72
2022/06/15 05:56:28;;;;;;;9.98;5.07;;;;;;;18.67;55.96;99143.25;5243322;28;20055;-72
2022/06/15 05:59:18;;;;;;;10.23;5.30;;;;;;;18.82;55.77;99139.72;5243367;28;20059;-71
2022/06/15 06:02:14;;;;;;;14.88;5.68;;;;;;;18.92;56.54;99132.16;5243068;28;20529;-71
2022/06/15 06:05:04;;;;;;;10.88;5.35;;;;;;;19.03;55.68;99139.66;5243022;28;20059;-72
2022/06/15 06:07:56;;;;;;;11.35;5.45;;;;;;;19.15;55.30;99135.44;5229703;28;20068;-72
2022/06/15 06:10:46;;;;;;;9.90;5.05;;;;;;;19.30;53.74;99138.00;5227809;28;20056;-71
2022/06/15 06:13:36;;;;;;;13.80;5.32;;;;;;;19.32;55.29;99143.19;5242404;28;20055;-71
2022/06/15 06:16:26;;;;;;;15.32;5.10;;;;;;;19.77;53.46;99141.00;5242496;28;20236;-71
2022/06/15 06:19:16;;;;;;;10.30;5.57;;;;;;;19.86;53.59;99131.72;5243580;28;20055;-71
2022/06/15 06:22:08;;;;;;;10.00;5.10;;;;;;;19.94;53.98;99145.84;5242922;28;20060;-71
2022/06/15 06:24:57;;;;;;;13.65;5.38;;;;;;;20.00;53.48;99143.38;5243079;28;20148;-71
2022/06/15 06:27:48;;;;;;;17.48;5.88;;;;;;;20.24;53.75;99140.16;5226599;28;20036;-71
2022/06/15 06:30:38;;;;;;;11.65;4.88;;;;;;;20.52;52.02;99136.53;5242379;28;20102;-71
2022/06/15 06:33:32;;;;;;;13.85;4.53;;;;;;;20.74;51.01;99138.00;5242816;28;20117;-71
2022/06/15 06:36:29;;;;;;;;;;;;;;;20.86;50.82;99140.91;5242749;28;20084;-71
2022/06/15 06:39:24;;;;;;;11.88;5.22;;;;;;;20.62;50.57;99136.94;5234150;28;20057;-71
2022/06/15 06:42:14;;;;;;;11.45;4.28;;;;;;;20.75;50.25;99136.13;5230490;28;20064;-71
2022/06/15 06:45:08;;;;;;;9.63;4.38;;;;;;;21.23;51.08;99141.34;5242732;28;20103;-71
2022/06/15 06:48:00;;;;;;;11.63;5.25;;;;;;;21.28;50.93;99120.75;5242880;28;20047;-71
2022/06/15 06:50:52;;;;;;;14.48;4.63;;;;;;;21.88;49.21;99144.09;5243799;28;20186;-71
2022/06/15 06:53:42;;;;;;;9.55;4.68;;;;;;;23.23;46.81;99133.94;5246077;28;20166;-71
2022/06/15 06:56:37;;;;;;;10.77;4.43;;;;;;;24.39;44.02;99149.28;5246600;28;20091;-71
2022/06/15 06:59:27;;;;;;;10.50;4.32;;;;;;;25.23;42.71;99135.72;5246914;28;20575;-71
2022/06/15 07:02:18;;;;;;;10.43;4.28;;;;;;;25.49;40.20;99134.41;5245128;28;20135;-71
2022/06/15 07:05:08;;;;;;;9.07;3.97;;;;;;;25.97;39.46;99140.63;5246547;28;20141;-72
2022/06/15 07:07:59;;;;;;;11.27;3.85;;;;;;;26.68;39.34;99139.28;5246718;28;20493;-71
2022/06/15 07:10:49;;;;;;;9.07;3.60;;;;;;;27.23;39.60;99137.75;5245793;28;20047;-71
2022/06/15 07:13:40;;;;;;;6.28;3.63;;;;;;;27.53;36.83;99133.84;5245988;28;20053;-72
2022/06/15 07:16:30;;;;;;;7.60;3.75;;;;;;;28.03;36.96;99125.53;5246547;28;20456;-72
2022/06/15 07:19:21;;;;;;;8.00;3.83;;;;;;;28.45;36.39;99135.84;5231122;28;20098;-72
2022/06/15 07:22:11;;;;;;;10.18;4.47;;;;;;;28.50;35.49;99133.13;5245330;28;20055;-72
2022/06/15 07:25:02;;;;;;;9.60;3.47;;;;;;;29.14;33.85;99137.84;5245996;28;20075;-71
2022/06/15 07:27:52;;;;;;;6.22;3.45;;;;;;;28.75;35.26;99113.47;5245334;28;20125;-72
2022/06/15 07:30:42;;;;;;;11.25;3.40;;;;;;;29.27;33.70;99136.53;5246010;28;20525;-71
2022/06/15 07:33:33;;;;;;;7.00;3.72;;;;;;;29.70;31.89;99134.63;5245701;28;20052;-72
2022/06/15 07:36:24;;;;;;;7.10;3.45;;;;;;;29.40;32.99;99127.06;5229518;28;20064;-71
2022/06/15 07:39:21;;;;;;;6.03;4.05;;;;;;;29.88;31.66;99139.66;5231352;28;20052;-72
2022/06/15 07:42:11;;;;;;;9.45;3.97;;;;;;;30.20;30.87;99122.31;5228904;28;20128;-72
2022/06/15 07:45:02;;;;;;;11.23;3.92;;;;;;;29.66;33.55;99139.81;5245898;28;20542;-72
2022/06/15 07:51:03;;;;;;;14.00;3.95;;;;;;;30.97;32.79;99136.13;5234588;28;20052;-72
2022/06/15 07:53:54;;;;;;;12.35;3.00;;;;;;;31.29;30.86;99136.66;5230567;28;20059;-72
2022/06/15 07:56:44;;;;;;;7.78;3.03;;;;;;;30.95;30.72;99127.34;5229782;28;20517;-72
2022/06/15 07:59:34;;;;;;;6.32;3.10;;;;;;;31.32;29.96;99135.25;5245996;28;20068;-72
2022/06/15 08:02:24;;;;;;;6.75;3.50;;;;;;;31.92;31.19;99147.22;5243967;28;20099;-72
2022/06/15 08:05:16;;;;;;;4.38;2.90;;;;;;;31.87;30.71;99132.69;5245105;28;20647;-72
2022/06/15 08:08:09;;;;;;;7.95;3.50;;;;;;;32.13;30.31;99139.72;5245856;28;20129;-72
2022/06/15 08:10:59;;;;;;;8.68;3.83;;;;;;;32.48;30.42;99133.25;5245161;28;20131;-72
2022/06/15 08:13:50;;;;;;;8.02;3.38;;;;;;;32.29;28.07;99145.94;5245049;28;20463;-71
2022/06/15 08:16:40;;;;;;;6.22;3.28;;;;;;;31.45;30.28;99114.72;5245728;28;20138;-71
2022/06/15 08:19:34;;;;;;;8.57;3.45;;;;;;;32.15;30.49;99136.69;5245471;28;20126;-71
2022/06/15 08:22:25;;;;;;;11.02;3.25;;;;;;;32.61;30.41;99126.28;5244908;28;20082;-71
2022/06/15 08:25:21;;;;;;;7.35;3.28;;;;;;;32.91;28.04;99138.13;5245038;28;20052;-71
2022/06/15 08:28:14;;;;;;;9.25;3.25;;;;;;;32.81;29.35;99138.22;5232578;28;20052;-71
2022/06/15 08:31:09;;;;;;;6.70;3.60;;;;;;;33.29;28.95;99135.63;5243973;28;20052;-71
2022/06/15 08:33:59;;;;;;;6.18;3.25;;;;;;;33.43;29.14;99131.09;5244681;28;20051;-71
2022/06/15 08:36:49;;;;;;;9.20;3.17;;;;;;;33.10;30.34;99138.28;5244356;28;20491;-71
2022/06/15 08:39:40;;;;;;;4.82;3.03;;;;;;;33.13;27.88;99122.03;5245033;28;20098;-71
2022/06/15 08:42:55;;;;;;;6.85;3.40;;;;;;;32.69;29.69;99133.91;5244655;28;20200;-72
2022/06/15 08:45:50;;;;;;;9.70;3.22;;;;;;;33.40;29.53;99126.97;5240219;28;20521;-70
2022/06/15 08:48:56;;;;;;;5.55;3.17;;;;;;;33.40;27.29;99126.16;5231975;28;20049;-70
2022/06/15 08:51:59;;;;;;;7.15;3.17;;;;;;;32.86;28.20;99117.03;5244036;28;20101;-71
2022/06/15 08:55:02;;;;;;;;;;;;;;;33.96;29.91;99124.72;5218500;28;20060;-71
2022/06/15 08:58:02;;;;;;;6.35;3.03;;;;;;;34.32;29.58;99133.34;5244773;28;19928;-71
2022/06/15 09:00:56;;;;;;;4.40;2.55;;;;;;;34.45;27.42;99135.38;5243794;28;20059;-71
2022/06/15 09:03:52;;;;;;;6.47;3.20;;;;;;;33.68;26.27;99136.34;5243792;28;20071;-71
2022/06/15 09:06:57;;;;;;;6.80;2.95;;;;;;;33.48;28.11;99120.06;5228882;28;20070;-71
2022/06/15 09:10:05;;;;;;;7.60;3.30;;;;;;;33.48;29.33;99127.44;5231149;28;20056;-71
2022/06/15 09:13:10;;;;;;;5.72;3.25;;;;;;;34.18;27.72;99124.22;5228134;28;20498;-71
2022/06/15 09:16:09;;;;;;;8.85;2.80;;;;;;;33.66;27.53;99129.50;5232766;28;20074;-71
2022/06/15 09:19:08;;;;;;;7.75;3.05;;;;;;;34.16;28.87;99115.41;5228916;28;20052;-71
2022/06/15 09:22:16;;;;;;;6.22;2.90;;;;;;;34.12;26.58;99113.25;5231074;28;20048;-71
2022/06/15 09:25:16;;;;;;;10.05;3.08;;;;;;;33.92;28.45;99130.00;5243231;28;20063;-71
2022/06/15 09:28:34;;;;;;;5.50;2.88;;;;;;;33.71;27.76;99087.34;5243907;28;20056;-71
2022/06/15 09:31:34;;;;;;;5.72;2.85;;;;;;;33.55;27.25;99116.97;5228468;28;20426;-71
2022/06/15 09:34:33;;;;;;;7.15;2.95;;;;;;;33.66;27.54;99124.81;5243918;28;20075;-71
2022/06/15 09:37:27;;;;;;;6.63;2.92;;;;;;;34.18;26.11;99114.00;5243245;28;20045;-71
2022/06/15 09:40:18;;;;;;;6.70;2.78;;;;;;;34.08;26.26;99127.91;5243200;28;20048;-71
2022/06/15 09:43:26;;;;;;;7.85;2.80;;;;;;;33.70;27.99;99113.22;5243367;28;20515;-71
2022/06/15 09:46:52;;;;;;;5.32;2.85;;;;;;;34.32;28.21;99116.84;5243316;28;20227;-71
2022/06/15 09:49:59;;;;;;;5.07;2.80;;;;;;;34.60;27.61;99123.31;5218354;28;20052;-71
2022/06/15 09:53:05;;;;;;;5.60;3.00;;;;;;;34.53;29.64;99115.44;5243572;28;20056;-71
2022/06/15 09:56:00;;;;;;;4.90;2.88;;;;;;;34.26;24.32;99115.28;5242378;28;20097;-71
2022/06/15 09:59:12;;;;;;;7.28;2.90;;;;;;;34.46;26.66;99109.47;5229113;28;20121;-71
2022/06/15 10:02:06;;;;;;;7.78;3.00;;;;;;;34.63;30.68;99113.66;5242355;28;20101;-71
2022/06/15 10:04:59;;;;;;;7.70;2.80;;;;;;;34.52;25.80;99107.50;5226541;28;20141;-71
2022/06/15 10:07:52;;;;;;;5.82;3.00;;;;;;;33.03;27.54;99122.13;5242431;28;20501;-70
2022/06/15 10:10:56;;;;;;;7.40;3.10;;;;;;;33.51;26.49;99111.25;5226872;28;20178;-71
2022/06/15 10:13:46;;;;;;;;;;;;;;;34.32;27.39;99111.34;5242442;28;20301;-71
2022/06/15 10:16:36;;;;;;;5.35;2.75;;;;;;;33.19;27.84;99114.56;5227310;28;20345;-71
2022/06/15 10:19:30;;;;;;;9.55;3.13;;;;;;;33.19;27.00;99122.81;5242556;28;20522;-71
2022/06/15 10:22:25;;;;;;;4.78;3.00;;;;;;;33.40;29.81;99115.16;5242071;28;20361;-71
2022/06/15 10:25:17;;;;;;;7.28;3.38;;;;;;;33.40;27.43;99120.66;5239553;28;20063;-71
2022/06/15 10:28:21;;;;;;;8.02;3.10;;;;;;;33.66;30.84;99110.25;5232838;28;20055;-71
2022/06/15 10:31:14;;;;;;;6.07;2.60;;;;;;;32.60;28.69;99110.91;5245535;28;20059;-71
2022/06/15 10:34:21;;;;;;;5.90;2.40;;;;;;;33.92;30.80;99111.56;5246153;28;20145;-71
2022/06/15 10:37:25;;;;;;;5.00;2.53;;;;;;;33.77;25.87;99105.44;5240943;28;20138;-71
2022/06/15 10:40:27;;;;;;;6.78;2.83;;;;;;;33.01;28.12;99110.59;5232056;28;20494;-71
2022/06/15 10:43:25;;;;;;;7.07;3.13;;;;;;;33.67;29.52;99103.63;5245666;28;20049;-71
2022/06/15 10:46:16;;;;;;;6.32;2.83;;;;;;;32.48;29.28;99110.44;5232378;28;20494;-71
2022/06/15 10:49:07;;;;;;;5.53;2.60;;;;;;;32.41;27.88;99099.75;5245737;28;20238;-71
2022/06/15 10:51:58;;;;;;;5.88;2.90;;;;;;;33.10;29.10;99088.81;5225777;28;20053;-71
2022/06/15 11:04:23;;;;;;;8.48;2.60;;;;;;;32.29;27.40;99099.31;5238851;28;20876;-69
2022/06/15 11:07:23;;;;;;;6.03;2.65;;;;;;;31.99;27.81;99092.06;5239385;28;20079;-70
2022/06/15 11:10:32;;;;;;;6.32;2.75;;;;;;;32.58;27.47;99085.66;5239254;28;20186;-70
2022/06/15 11:13:42;;;;;;;7.60;2.95;;;;;;;32.50;26.92;99089.84;5238342;28;20198;-69
2022/06/15 11:19:56;;;;;;;5.55;2.85;;;;;;;32.07;29.17;99066.78;5245976;28;20113;-69
2022/06/15 11:22:48;;;;;;;6.93;2.38;;;;;;;32.60;28.04;99077.97;5244762;28;20555;-70
2022/06/15 11:25:44;;;;;;;6.35;2.25;;;;;;;32.75;28.81;99077.88;5247296;28;20063;-70
2022/06/15 11:28:37;;;;;;;5.72;2.30;;;;;;;32.60;26.14;99077.16;5256265;28;20060;-71
2022/06/15 11:31:29;;;;;;;7.60;2.30;;;;;;;31.85;26.89;99071.81;5239580;28;20064;-72
2022/06/15 11:34:27;;;;;;;3.08;2.28;;;;;;;31.74;27.04;99069.13;5256524;28;20083;-72
2022/06/15 11:37:23;;;;;;;6.18;2.85;;;;;;;32.21;30.66;99061.47;5247805;28;20059;-72
2022/06/15 11:40:23;;;;;;;6.03;2.30;;;;;;;31.87;29.97;99067.69;5260056;28;20110;-72
2022/06/15 11:43:21;;;;;;;2.80;2.17;;;;;;;32.12;28.04;99064.03;5249270;28;20105;-72
2022/06/15 11:46:41;;;;;;;5.25;2.50;;;;;;;32.70;26.10;99053.19;5244171;28;20557;-72
2022/06/15 11:49:54;;;;;;;7.90;2.47;;;;;;;32.38;24.86;99058.34;5240274;28;20048;-70
2022/06/15 11:52:54;;;;;;;5.40;2.20;;;;;;;32.59;27.22;99057.13;5247989;28;20074;-70
2022/06/15 11:55:54;;;;;;;7.88;2.67;;;;;;;32.43;27.53;99059.16;5239257;28;20055;-72
2022/06/15 11:59:01;;;;;;;4.93;2.67;;;;;;;31.99;28.05;99059.97;5243813;28;20358;-72
2022/06/15 12:02:39;;;;;;;5.55;2.80;;;;;;;31.76;29.20;99053.22;5255656;28;20078;-70
2022/06/15 12:05:36;;;;;;;6.88;2.50;;;;;;;31.52;28.04;99050.31;5247177;28;20157;-71
2022/06/15 12:08:41;;;;;;;3.95;2.20;;;;;;;31.93;29.39;99055.63;5243391;28;20051;-71
2022/06/15 12:15:32;;;;;;;5.93;2.50;;;;;;;31.69;26.79;99052.72;5231650;28;20523;-72
2022/06/15 12:18:47;;;;;;;8.90;2.13;;;;;;;32.04;28.16;99056.38;5226560;28;20357;-72
2022/06/15 12:21:47;;;;;;;5.20;2.15;;;;;;;32.27;26.64;99055.69;5237339;28;20499;-72
2022/06/15 12:24:47;;;;;;;4.05;2.30;;;;;;;31.74;28.09;99055.41;5241986;28;20041;-72
2022/06/15 12:27:58;;;;;;;6.50;2.22;;;;;;;31.69;28.41;99055.44;5225593;28;20052;-71
2022/06/15 12:31:01;;;;;;;3.70;1.73;;;;;;;31.50;26.41;99062.66;5224929;28;20458;-72
2022/06/15 12:34:22;;;;;;;3.28;2.15;;;;;;;31.37;27.25;99058.56;5238771;28;20045;-72
2022/06/15 12:37:18;;;;;;;4.70;1.90;;;;;;;31.32;28.13;99047.59;5235188;28;20126;-72
2022/06/15 12:40:31;;;;;;;4.47;2.10;;;;;;;31.35;26.88;99045.13;5242980;28;20495;-72
2022/06/15 12:43:31;;;;;;;7.35;1.90;;;;;;;31.11;29.08;99041.34;5225352;28;20762;-72
2022/06/15 12:46:23;;;;;;;6.20;2.25;;;;;;;31.35;29.42;99045.13;5241835;28;20060;-72
2022/06/15 12:49:40;;;;;;;2.47;1.77;;;;;;;31.87;26.91;99042.19;5235655;28;20060;-72
2022/06/15 12:52:39;;;;;;;4.65;2.35;;;;;;;31.42;25.64;99038.53;5225431;28;20079;-72
2022/06/15 12:55:38;;;;;;;3.53;2.10;;;;;;;31.24;26.69;99043.50;5225211;28;20056;-72
2022/06/15 12:58:49;;;;;;;3.92;2.17;;;;;;;31.23;26.66;99041.06;5229253;28;20057;-72
2022/06/15 13:01:47;;;;;;;5.97;2.85;;;;;;;31.42;28.79;99044.03;5235980;28;20052;-72
2022/06/15 13:04:59;;;;;;;7.38;2.30;;;;;;;31.19;26.69;99040.78;5225766;28;20076;-72
2022/06/15 13:08:11;;;;;;;7.35;2.17;;;;;;;31.21;29.07;99038.59;5244999;28;20056;-72
2022/06/15 13:11:12;;;;;;;8.75;2.17;;;;;;;29.66;28.73;99026.97;5229652;28;20048;-71
2022/06/15 13:14:14;;;;;;;13.45;2.45;;;;;;;30.42;28.20;99038.09;5233101;28;20471;-72
2022/06/15 13:17:10;;;;;;;2.47;1.90;;;;;;;30.31;27.89;99035.63;5242492;28;20048;-72
2022/06/15 13:20:06;;;;;;;6.45;2.45;;;;;;;30.55;29.73;99041.38;5243793;28;20083;-72
2022/06/15 13:22:56;;;;;;;3.92;2.30;;;;;;;30.74;26.89;99017.84;5232383;28;20044;-72
2022/06/15 13:25:59;;;;;;;6.22;2.30;;;;;;;30.33;28.65;99028.81;5227368;28;20151;-71
2022/06/15 13:29:17;;;;;;;4.38;2.28;;;;;;;30.76;27.64;99028.50;5231999;28;20055;-72
2022/06/15 13:32:07;;;;;;;6.72;2.63;;;;;;;31.18;28.18;99028.19;5240869;28;20122;-72
2022/06/15 13:35:20;;;;;;;3.72;2.40;;;;;;;31.04;28.94;99022.47;5224214;28;20071;-72
2022/06/15 13:38:20;;;;;;;4.18;2.28;;;;;;;31.26;27.76;99026.78;5223122;28;20041;-72
2022/06/15 13:41:21;;;;;;;8.85;2.40;;;;;;;31.04;28.78;99022.47;5223485;28;20479;-72
2022/06/15 13:44:13;;;;;;;6.20;2.30;;;;;;;31.17;28.19;99021.06;5228616;28;20109;-72
2022/06/15 13:47:05;;;;;;;3.88;2.20;;;;;;;31.20;29.05;99028.72;5231115;28;20063;-72
2022/06/15 13:50:00;;;;;;;8.27;2.53;;;;;;;31.42;27.28;99017.44;5224225;28;20071;-72
2022/06/15 13:52:53;;;;;;;7.18;2.45;;;;;;;31.31;28.51;99016.63;5234335;28;20063;-72
2022/06/15 13:56:05;;;;;;;7.43;2.60;;;;;;;31.47;26.88;99019.34;5241446;28;20193;-70
2022/06/15 13:59:28;;;;;;;6.18;2.80;;;;;;;31.19;27.91;99021.59;5222798;28;20063;-71
2022/06/15 14:02:33;;;;;;;5.18;2.40;;;;;;;30.94;29.35;99019.75;5214277;28;20053;-72
2022/06/15 14:05:46;;;;;;;9.15;2.60;;;;;;;31.11;29.64;99013.97;5223194;28;20041;-72
2022/06/15 14:08:45;;;;;;;4.18;2.42;;;;;;;31.29;29.37;99007.03;5223275;28;20060;-70
2022/06/15 14:12:07;;;;;;;3.33;2.45;;;;;;;31.02;29.81;99010.16;5222495;28;20103;-72